createdAt,value
2019-03-05T00:00:34.494Z,4.86
2019-03-05T00:01:35.642Z,4.73
2019-03-05T00:02:34.590Z,4.75
2019-03-05T00:03:34.582Z,4.88
2019-03-05T00:04:35.052Z,4.77
2019-03-05T00:05:34.529Z,4.85
2019-03-05T00:06:34.499Z,4.84
2019-03-05T00:07:34.576Z,4.91
2019-03-05T00:08:34.593Z,4.80
2019-03-05T00:09:36.627Z,4.75
2019-03-05T00:10:34.486Z,4.78
2019-03-05T00:11:34.428Z,4.85
2019-03-05T00:12:34.442Z,4.88
2019-03-05T00:13:34.435Z,4.86
2019-03-05T00:14:34.417Z,4.85
2019-03-05T00:15:34.536Z,4.94
2019-03-05T00:16:34.417Z,4.88
2019-03-05T00:17:34.431Z,4.86
2019-03-05T00:18:34.397Z,4.85
2019-03-05T00:19:34.382Z,4.85
2019-03-05T00:20:34.416Z,4.89
2019-03-05T00:21:34.379Z,4.89
2019-03-05T00:22:34.382Z,4.94
2019-03-05T00:23:34.372Z,4.88
2019-03-05T00:24:34.348Z,4.86
2019-03-05T00:25:34.363Z,4.99
2019-03-05T00:26:34.381Z,4.97
2019-03-05T00:27:34.341Z,4.96
2019-03-05T00:28:35.256Z,5.06
2019-03-05T00:29:34.349Z,5.09
2019-03-05T00:30:34.319Z,5.06
2019-03-05T00:31:34.314Z,5.04
2019-03-05T00:32:34.303Z,5.06
2019-03-05T00:33:34.279Z,5.04
2019-03-05T00:34:34.274Z,5.10
2019-03-05T00:35:34.337Z,5.02
2019-03-05T00:36:34.306Z,5.09
2019-03-05T00:37:34.258Z,5.03
2019-03-05T00:38:34.259Z,4.99
2019-03-05T00:39:34.264Z,4.80
2019-03-05T00:40:34.249Z,4.69
2019-03-05T00:41:34.260Z,4.60
2019-03-05T00:42:34.304Z,4.50
2019-03-05T00:43:34.258Z,4.51
2019-03-05T00:44:34.221Z,4.67
2019-03-05T00:45:34.215Z,4.54
2019-03-05T00:46:34.211Z,4.45
2019-03-05T00:47:34.202Z,4.50
2019-03-05T00:48:34.196Z,4.47
2019-03-05T00:49:34.187Z,4.50
2019-03-05T00:50:34.181Z,4.47
2019-03-05T00:51:34.225Z,4.65
2019-03-05T00:52:34.183Z,4.59
2019-03-05T00:53:34.179Z,4.54
2019-03-05T00:54:34.176Z,4.58
2019-03-05T00:55:34.172Z,4.62
2019-03-05T00:56:34.153Z,4.69
2019-03-05T00:57:34.142Z,4.65
2019-03-05T00:58:34.178Z,4.66
2019-03-05T00:59:34.186Z,4.55
2019-03-05T01:00:34.133Z,4.60
2019-03-05T01:01:34.119Z,4.65
2019-03-05T01:02:34.120Z,4.59
2019-03-05T01:03:34.114Z,4.66
2019-03-05T01:04:34.147Z,4.65
2019-03-05T01:05:34.110Z,4.78
2019-03-05T01:06:34.118Z,4.86
2019-03-05T01:07:34.166Z,4.86
2019-03-05T01:08:34.111Z,4.84
2019-03-05T01:09:34.080Z,4.78
2019-03-05T01:10:34.075Z,4.84
2019-03-05T01:11:34.142Z,4.82
2019-03-05T01:12:34.067Z,4.84
2019-03-05T01:13:34.097Z,4.85
2019-03-05T01:14:34.203Z,4.89
2019-03-05T01:15:34.119Z,4.88
2019-03-05T01:16:34.180Z,4.78
2019-03-05T01:17:34.152Z,4.72
2019-03-05T01:18:34.253Z,4.77
2019-03-05T01:19:34.092Z,4.73
2019-03-05T01:20:34.047Z,4.72
2019-03-05T01:21:34.044Z,4.72
2019-03-05T01:22:34.016Z,4.80
2019-03-05T01:23:34.011Z,4.84
2019-03-05T01:24:34.019Z,4.84
2019-03-05T01:25:34.016Z,4.84
2019-03-05T01:26:34.064Z,4.82
2019-03-05T01:27:33.983Z,4.80
2019-03-05T01:28:34.054Z,4.77
2019-03-05T01:29:34.044Z,4.77
2019-03-05T01:30:33.968Z,4.75
2019-03-05T01:31:33.962Z,4.89
2019-03-05T01:32:34.092Z,4.84
2019-03-05T01:33:34.014Z,4.84
2019-03-05T01:34:34.018Z,4.89
2019-03-05T01:35:33.954Z,4.91
2019-03-05T01:36:33.934Z,4.86
2019-03-05T01:37:33.938Z,4.88
2019-03-05T01:38:33.913Z,4.77
2019-03-05T01:39:33.904Z,4.75
2019-03-05T01:40:33.900Z,4.77
2019-03-05T01:41:33.905Z,4.85
2019-03-05T01:42:33.911Z,4.80
2019-03-05T01:43:33.888Z,4.78
2019-03-05T01:44:33.886Z,4.86
2019-03-05T01:45:33.983Z,5.02
2019-03-05T01:46:33.855Z,4.91
2019-03-05T01:47:33.888Z,4.88
2019-03-05T01:48:33.858Z,4.84
2019-03-05T01:49:33.856Z,4.86
2019-03-05T01:50:33.856Z,4.89
2019-03-05T01:51:33.816Z,4.89
2019-03-05T01:52:33.911Z,4.82
2019-03-05T01:53:33.830Z,4.80
2019-03-05T01:54:33.879Z,4.80
2019-03-05T01:55:33.825Z,4.77
2019-03-05T01:56:33.797Z,4.77
2019-03-05T01:57:33.827Z,4.80
2019-03-05T01:58:33.828Z,4.84
2019-03-05T01:59:33.834Z,4.85
2019-03-05T02:00:33.875Z,4.72
2019-03-05T02:01:33.781Z,4.80
2019-03-05T02:02:33.816Z,4.77
2019-03-05T02:03:33.839Z,4.77
2019-03-05T02:04:33.787Z,4.75
2019-03-05T02:05:33.747Z,4.77
2019-03-05T02:06:33.785Z,4.72
2019-03-05T02:07:33.769Z,4.77
2019-03-05T02:08:33.713Z,4.85
2019-03-05T02:09:33.730Z,4.78
2019-03-05T02:10:33.727Z,4.82
2019-03-05T02:11:33.716Z,4.70
2019-03-05T02:12:33.747Z,4.84
2019-03-05T02:13:34.701Z,4.75
2019-03-05T02:14:33.691Z,4.80
2019-03-05T02:15:33.682Z,4.84
2019-03-05T02:16:33.706Z,4.91
2019-03-05T02:17:33.749Z,4.89
2019-03-05T02:18:33.703Z,4.78
2019-03-05T02:19:33.662Z,4.84
2019-03-05T02:20:33.710Z,4.72
2019-03-05T02:21:33.696Z,4.84
2019-03-05T02:22:33.874Z,4.82
2019-03-05T02:23:33.661Z,4.96
2019-03-05T02:24:33.642Z,4.86
2019-03-05T02:25:33.643Z,4.88
2019-03-05T02:26:33.637Z,4.88
2019-03-05T02:27:33.629Z,4.77
2019-03-05T02:28:33.678Z,4.78
2019-03-05T02:29:33.703Z,4.80
2019-03-05T02:30:33.634Z,4.72
2019-03-05T02:31:33.607Z,4.70
2019-03-05T02:32:33.632Z,4.86
2019-03-05T02:33:33.667Z,4.77
2019-03-05T02:34:33.623Z,4.73
2019-03-05T02:35:33.613Z,4.73
2019-03-05T02:36:33.602Z,4.77
2019-03-05T02:37:33.587Z,4.66
2019-03-05T02:38:33.593Z,4.72
2019-03-05T02:39:33.612Z,4.70
2019-03-05T02:40:33.630Z,4.66
2019-03-05T02:41:33.584Z,4.73
2019-03-05T02:42:33.571Z,4.82
2019-03-05T02:43:33.583Z,4.84
2019-03-05T02:44:33.541Z,4.80
2019-03-05T02:45:33.531Z,4.70
2019-03-05T02:46:33.521Z,4.72
2019-03-05T02:47:33.563Z,4.73
2019-03-05T02:48:33.592Z,4.77
2019-03-05T02:49:33.581Z,4.66
2019-03-05T02:50:33.547Z,4.72
2019-03-05T02:51:33.516Z,4.72
2019-03-05T02:52:33.528Z,4.75
2019-03-05T02:53:33.667Z,4.70
2019-03-05T02:54:33.494Z,4.82
2019-03-05T02:55:33.502Z,4.80
2019-03-05T02:56:33.526Z,4.77
2019-03-05T02:57:33.552Z,4.84
2019-03-05T02:58:33.501Z,4.75
2019-03-05T02:59:33.516Z,4.78
2019-03-05T03:00:33.460Z,4.73
2019-03-05T03:01:33.444Z,4.67
2019-03-05T03:02:33.449Z,4.69
2019-03-05T03:03:33.464Z,4.69
2019-03-05T03:04:33.422Z,4.72
2019-03-05T03:05:33.411Z,4.70
2019-03-05T03:06:33.395Z,4.63
2019-03-05T03:07:33.423Z,4.66
2019-03-05T03:08:33.403Z,4.66
2019-03-05T03:09:33.402Z,4.55
2019-03-05T03:10:33.404Z,4.70
2019-03-05T03:11:33.444Z,4.51
2019-03-05T03:12:33.387Z,4.40
2019-03-05T03:13:33.397Z,4.37
2019-03-05T03:14:33.417Z,4.29
2019-03-05T03:15:33.365Z,4.24
2019-03-05T03:16:33.377Z,4.27
2019-03-05T03:17:33.405Z,4.30
2019-03-05T03:18:33.445Z,4.23
2019-03-05T03:19:33.355Z,4.23
2019-03-05T03:20:33.385Z,4.16
2019-03-05T03:21:33.398Z,4.22
2019-03-05T03:22:33.362Z,4.06
2019-03-05T03:23:33.372Z,4.00
2019-03-05T03:24:33.363Z,4.06
2019-03-05T03:25:33.296Z,4.11
2019-03-05T03:26:33.308Z,4.00
2019-03-05T03:27:33.434Z,4.08
2019-03-05T03:28:33.360Z,4.00
2019-03-05T03:29:33.298Z,3.91
2019-03-05T03:30:33.317Z,3.75
2019-03-05T03:31:33.264Z,3.90
2019-03-05T03:32:33.282Z,3.76
2019-03-05T03:33:33.260Z,3.72
2019-03-05T03:34:33.275Z,3.66
2019-03-05T03:35:33.280Z,3.70
2019-03-05T03:36:33.309Z,3.57
2019-03-05T03:37:33.273Z,3.54
2019-03-05T03:38:33.311Z,3.54
2019-03-05T03:39:33.218Z,3.55
2019-03-05T03:40:33.210Z,3.54
2019-03-05T03:41:33.177Z,3.52
2019-03-05T03:42:33.165Z,3.39
2019-03-05T03:43:33.176Z,3.39
2019-03-05T03:44:33.172Z,3.31
2019-03-05T03:45:34.159Z,3.14
2019-03-05T03:46:33.150Z,3.11
2019-03-05T03:47:33.151Z,2.93
2019-03-05T03:48:33.142Z,2.82
2019-03-05T03:49:33.134Z,2.79
2019-03-05T03:50:33.125Z,2.74
2019-03-05T03:51:33.117Z,2.72
2019-03-05T03:52:33.114Z,2.69
2019-03-05T03:53:33.107Z,2.60
2019-03-05T03:54:33.115Z,2.63
2019-03-05T03:55:33.100Z,2.64
2019-03-05T03:56:33.096Z,2.57
2019-03-05T03:57:33.086Z,2.57
2019-03-05T03:58:33.093Z,2.61
2019-03-05T03:59:33.081Z,2.53
2019-03-05T04:00:33.068Z,2.52
2019-03-05T04:01:33.054Z,2.45
2019-03-05T04:02:33.051Z,2.42
2019-03-05T04:03:33.036Z,2.41
2019-03-05T04:04:33.040Z,2.46
2019-03-05T04:05:33.024Z,2.38
2019-03-05T04:06:33.026Z,2.31
2019-03-05T04:07:33.014Z,2.34
2019-03-05T04:08:33.011Z,2.30
2019-03-05T04:09:33.006Z,2.18
2019-03-05T04:10:32.993Z,2.24
2019-03-05T04:11:32.976Z,2.23
2019-03-05T04:12:32.976Z,2.30
2019-03-05T04:13:32.966Z,2.23
2019-03-05T04:14:32.972Z,2.24
2019-03-05T04:15:32.958Z,2.20
2019-03-05T04:16:32.944Z,2.25
2019-03-05T04:17:32.934Z,2.30
2019-03-05T04:18:32.948Z,2.23
2019-03-05T04:19:32.919Z,2.27
2019-03-05T04:20:32.918Z,2.35
2019-03-05T04:21:32.904Z,2.34
2019-03-05T04:22:32.909Z,2.36
2019-03-05T04:23:32.890Z,2.30
2019-03-05T04:24:32.896Z,2.24
2019-03-05T04:25:32.887Z,2.27
2019-03-05T04:26:32.875Z,2.21
2019-03-05T04:27:32.856Z,2.16
2019-03-05T04:28:32.852Z,2.25
2019-03-05T04:29:32.854Z,2.30
2019-03-05T04:30:32.856Z,2.21
2019-03-05T04:31:32.855Z,2.20
2019-03-05T04:32:32.849Z,2.27
2019-03-05T04:33:32.839Z,2.34
2019-03-05T04:34:32.848Z,2.28
2019-03-05T04:35:32.835Z,2.23
2019-03-05T04:36:32.814Z,2.17
2019-03-05T04:37:32.809Z,2.20
2019-03-05T04:39:04.813Z,2.18
2019-03-05T04:39:32.824Z,2.28
2019-03-05T04:40:32.825Z,2.30
2019-03-05T04:41:32.826Z,2.34
2019-03-05T04:42:32.794Z,2.30
2019-03-05T04:43:33.802Z,2.36
2019-03-05T04:44:32.827Z,2.36
2019-03-05T04:45:32.844Z,2.35
2019-03-05T04:46:32.802Z,2.39
2019-03-05T04:47:32.777Z,2.34
2019-03-05T04:48:32.775Z,2.23
2019-03-05T04:49:32.782Z,2.27
2019-03-05T04:50:33.850Z,2.31
2019-03-05T04:51:32.774Z,2.38
2019-03-05T04:52:32.769Z,2.27
2019-03-05T04:53:32.758Z,2.39
2019-03-05T04:54:32.823Z,2.24
2019-03-05T04:55:32.752Z,2.31
2019-03-05T04:56:32.875Z,2.38
2019-03-05T04:57:32.760Z,2.36
2019-03-05T04:58:32.727Z,2.34
2019-03-05T04:59:32.712Z,2.34
2019-03-05T05:00:32.706Z,2.35
2019-03-05T05:01:32.747Z,2.42
2019-03-05T05:02:32.795Z,2.43
2019-03-05T05:03:32.699Z,2.45
2019-03-05T05:04:32.696Z,2.42
2019-03-05T05:05:32.672Z,2.43
2019-03-05T05:06:32.700Z,2.41
2019-03-05T05:07:32.689Z,2.45
2019-03-05T05:08:32.684Z,2.48
2019-03-05T05:09:32.654Z,2.48
2019-03-05T05:10:32.653Z,2.45
2019-03-05T05:11:32.685Z,2.57
2019-03-05T05:12:33.583Z,2.49
2019-03-05T05:13:35.495Z,2.57
2019-03-05T05:14:32.658Z,2.61
2019-03-05T05:15:32.640Z,2.66
2019-03-05T05:16:32.641Z,2.53
2019-03-05T05:17:32.749Z,2.64
2019-03-05T05:18:32.648Z,2.64
2019-03-05T05:19:32.609Z,2.61
2019-03-05T05:20:32.587Z,2.64
2019-03-05T05:21:33.581Z,2.66
2019-03-05T05:22:32.873Z,2.72
2019-03-05T05:23:32.674Z,2.74
2019-03-05T05:24:32.768Z,2.78
2019-03-05T05:25:32.650Z,2.82
2019-03-05T05:26:33.081Z,2.87
2019-03-05T05:27:32.678Z,2.92
2019-03-05T05:28:32.554Z,2.82
2019-03-05T05:29:32.582Z,2.72
2019-03-05T05:30:32.539Z,2.82
2019-03-05T05:31:32.537Z,2.84
2019-03-05T05:32:32.629Z,2.78
2019-03-05T05:33:33.325Z,2.84
2019-03-05T05:34:32.685Z,2.89
2019-03-05T05:35:32.520Z,2.85
2019-03-05T05:36:32.518Z,2.87
2019-03-05T05:37:32.495Z,2.89
2019-03-05T05:38:32.463Z,2.90
2019-03-05T05:39:32.532Z,2.90
2019-03-05T05:40:32.516Z,2.90
2019-03-05T05:41:33.081Z,2.92
2019-03-05T05:42:32.478Z,2.92
2019-03-05T05:43:33.165Z,2.93
2019-03-05T05:44:32.465Z,2.90
2019-03-05T05:45:32.468Z,2.77
2019-03-05T05:46:32.421Z,2.87
2019-03-05T05:47:32.401Z,2.89
2019-03-05T05:48:32.454Z,2.87
2019-03-05T05:49:32.480Z,2.92
2019-03-05T05:50:32.424Z,2.93
2019-03-05T05:51:32.397Z,3.02
2019-03-05T05:52:32.526Z,2.90
2019-03-05T05:53:32.555Z,2.97
2019-03-05T05:54:32.410Z,3.08
2019-03-05T05:55:32.410Z,3.13
2019-03-05T05:56:32.390Z,3.05
2019-03-05T05:57:32.399Z,3.18
2019-03-05T05:58:32.386Z,3.13
2019-03-05T05:59:32.474Z,3.20
2019-03-05T06:00:32.407Z,3.15
2019-03-05T06:01:32.366Z,3.18
2019-03-05T06:02:33.081Z,3.24
2019-03-05T06:03:32.358Z,3.26
2019-03-05T06:04:32.414Z,3.28
2019-03-05T06:05:32.598Z,3.23
2019-03-05T06:06:32.431Z,3.31
2019-03-05T06:07:32.366Z,3.29
2019-03-05T06:08:33.087Z,3.29
2019-03-05T06:09:35.089Z,3.29
2019-03-05T06:10:32.311Z,3.39
2019-03-05T06:11:32.394Z,3.42
2019-03-05T06:12:33.366Z,3.42
2019-03-05T06:13:32.423Z,3.47
2019-03-05T06:14:32.419Z,3.51
2019-03-05T06:15:32.382Z,3.68
2019-03-05T06:16:32.283Z,3.51
2019-03-05T06:17:32.373Z,3.50
2019-03-05T06:18:33.083Z,3.51
2019-03-05T06:19:32.354Z,3.65
2019-03-05T06:20:34.028Z,3.61
2019-03-05T06:21:32.343Z,3.62
2019-03-05T06:22:32.275Z,3.62
2019-03-05T06:23:32.267Z,3.65
2019-03-05T06:24:32.223Z,3.75
2019-03-05T06:25:32.314Z,3.70
2019-03-05T06:26:32.271Z,3.75
2019-03-05T06:27:32.207Z,3.75
2019-03-05T06:28:32.191Z,3.76
2019-03-05T06:29:32.200Z,3.75
2019-03-05T06:30:34.125Z,3.73
2019-03-05T06:31:32.256Z,3.75
2019-03-05T06:32:32.179Z,3.76
2019-03-05T06:33:32.172Z,3.72
2019-03-05T06:34:32.254Z,3.86
2019-03-05T06:35:32.191Z,3.78
2019-03-05T06:36:34.088Z,3.80
2019-03-05T06:37:33.275Z,3.88
2019-03-05T06:38:34.092Z,3.83
2019-03-05T06:39:32.145Z,3.91
2019-03-05T06:40:32.136Z,3.91
2019-03-05T06:41:33.224Z,3.84
2019-03-05T06:42:32.197Z,3.88
2019-03-05T06:43:32.118Z,3.86
2019-03-05T06:44:32.104Z,3.87
2019-03-05T06:45:32.099Z,3.88
2019-03-05T06:46:32.709Z,3.83
2019-03-05T06:47:32.103Z,3.98
2019-03-05T06:48:32.207Z,3.84
2019-03-05T06:49:32.061Z,3.94
2019-03-05T06:50:32.106Z,3.98
2019-03-05T06:51:32.093Z,4.00
2019-03-05T06:52:32.124Z,4.02
2019-03-05T06:53:32.024Z,4.02
2019-03-05T06:54:32.080Z,4.00
2019-03-05T06:55:32.088Z,4.08
2019-03-05T06:56:32.041Z,4.06
2019-03-05T06:57:32.054Z,4.09
2019-03-05T06:58:32.038Z,4.08
2019-03-05T06:59:32.038Z,4.08
2019-03-05T07:00:32.077Z,4.08
2019-03-05T07:01:32.025Z,4.20
2019-03-05T07:02:31.985Z,4.18
2019-03-05T07:03:31.979Z,4.22
2019-03-05T07:04:31.967Z,4.37
2019-03-05T07:05:31.979Z,4.32
2019-03-05T07:06:33.091Z,4.30
2019-03-05T07:07:32.006Z,4.50
2019-03-05T07:08:32.830Z,4.51
2019-03-05T07:09:32.952Z,4.52
2019-03-05T07:10:31.946Z,4.52
2019-03-05T07:11:31.922Z,4.69
2019-03-05T07:12:32.749Z,4.59
2019-03-05T07:13:31.923Z,4.44
2019-03-05T07:14:31.927Z,4.51
2019-03-05T07:15:31.895Z,4.55
2019-03-05T07:16:31.874Z,4.59
2019-03-05T07:17:32.586Z,4.60
2019-03-05T07:18:32.043Z,4.59
2019-03-05T07:19:31.909Z,4.59
2019-03-05T07:20:31.968Z,4.54
2019-03-05T07:21:31.895Z,4.65
2019-03-05T07:22:31.887Z,4.59
2019-03-05T07:23:31.868Z,4.55
2019-03-05T07:24:31.862Z,4.59
2019-03-05T07:25:31.843Z,4.55
2019-03-05T07:26:31.829Z,4.54
2019-03-05T07:27:31.845Z,4.62
2019-03-05T07:29:17.936Z,4.70
2019-03-05T07:29:31.794Z,5.18
2019-03-05T07:30:31.854Z,5.21
2019-03-05T07:31:31.777Z,5.27
2019-03-05T07:32:31.838Z,5.15
2019-03-05T07:33:33.646Z,5.24
2019-03-05T07:34:31.810Z,5.06
2019-03-05T07:35:31.819Z,5.18
2019-03-05T07:36:31.781Z,5.03
2019-03-05T07:38:04.191Z,5.04
2019-03-05T07:38:31.739Z,5.07
2019-03-05T07:39:31.741Z,5.18
2019-03-05T07:40:31.737Z,5.15
2019-03-05T07:41:31.724Z,5.17
2019-03-05T07:42:31.720Z,5.35
2019-03-05T07:43:36.394Z,5.24
2019-03-05T07:44:33.714Z,5.25
2019-03-05T07:45:31.705Z,5.25
2019-03-05T07:46:31.693Z,5.24
2019-03-05T07:47:31.683Z,5.21
2019-03-05T07:48:31.684Z,5.18
2019-03-05T07:49:42.951Z,5.27
2019-03-05T07:50:32.667Z,5.39
2019-03-05T07:51:31.658Z,5.48
2019-03-05T07:52:31.646Z,5.27
2019-03-05T07:53:31.666Z,5.33
2019-03-05T07:54:31.646Z,5.30
2019-03-05T07:55:31.637Z,5.43
2019-03-05T07:56:31.635Z,5.53
2019-03-05T07:57:31.620Z,5.39
2019-03-05T07:58:31.610Z,5.48
2019-03-05T07:59:31.620Z,5.42
2019-03-05T08:00:31.608Z,5.43
2019-03-05T08:01:31.590Z,5.51
2019-03-05T08:02:31.582Z,5.49
2019-03-05T08:03:31.580Z,5.45
2019-03-05T08:04:31.582Z,5.53
2019-03-05T08:05:31.584Z,5.58
2019-03-05T08:06:31.587Z,5.58
2019-03-05T08:07:31.580Z,5.58
2019-03-05T08:08:31.579Z,5.48
2019-03-05T08:09:31.574Z,5.49
2019-03-05T08:10:31.564Z,5.25
2019-03-05T08:11:31.919Z,5.22
2019-03-05T08:12:32.545Z,5.27
2019-03-05T08:13:31.527Z,5.21
2019-03-05T08:14:31.541Z,5.36
2019-03-05T08:15:31.530Z,5.30
2019-03-05T08:16:31.513Z,5.31
2019-03-05T08:17:31.527Z,5.20
2019-03-05T08:18:31.552Z,5.22
2019-03-05T08:19:31.530Z,5.22
2019-03-05T08:20:31.513Z,5.21
2019-03-05T08:21:31.499Z,5.28
2019-03-05T08:22:31.491Z,5.28
2019-03-05T08:23:31.499Z,5.25
2019-03-05T08:24:31.494Z,5.22
2019-03-05T08:25:31.477Z,5.24
2019-03-05T08:26:31.466Z,5.21
2019-03-05T08:27:31.463Z,5.15
2019-03-05T08:28:31.454Z,5.21
2019-03-05T08:29:31.455Z,5.18
2019-03-05T08:30:31.434Z,5.17
2019-03-05T08:31:31.434Z,5.02
2019-03-05T08:32:31.422Z,5.04
2019-03-05T08:33:31.413Z,5.09
2019-03-05T08:34:31.422Z,5.15
2019-03-05T08:35:31.415Z,5.09
2019-03-05T08:36:31.393Z,5.12
2019-03-05T08:37:31.383Z,5.20
2019-03-05T08:38:31.373Z,5.20
2019-03-05T08:39:31.390Z,5.27
2019-03-05T08:40:31.365Z,5.28
2019-03-05T08:41:31.366Z,5.27
2019-03-05T08:42:31.358Z,5.27
2019-03-05T08:43:31.351Z,5.20
2019-03-05T08:44:31.342Z,5.18
2019-03-05T08:45:31.345Z,5.21
2019-03-05T08:46:31.327Z,5.28
2019-03-05T08:47:31.318Z,5.27
2019-03-05T08:48:31.336Z,5.33
2019-03-05T08:49:31.328Z,5.27
2019-03-05T08:50:31.347Z,5.38
2019-03-05T08:51:31.312Z,5.38
2019-03-05T08:52:31.304Z,5.36
2019-03-05T08:53:31.299Z,5.36
2019-03-05T08:54:31.292Z,5.33
2019-03-05T08:55:31.317Z,5.53
2019-03-05T08:56:31.273Z,5.53
2019-03-05T08:57:31.273Z,5.43
2019-03-05T08:58:31.309Z,5.42
2019-03-05T08:59:32.698Z,5.43
2019-03-05T09:00:32.286Z,5.27
2019-03-05T09:01:31.235Z,5.27
2019-03-05T09:02:31.230Z,5.40
2019-03-05T09:03:31.224Z,5.31
2019-03-05T09:04:31.213Z,5.30
2019-03-05T09:05:31.201Z,5.35
2019-03-05T09:06:32.199Z,5.38
2019-03-05T09:07:31.208Z,5.35
2019-03-05T09:08:31.192Z,5.25
2019-03-05T09:09:31.178Z,5.20
2019-03-05T09:10:31.181Z,5.21
2019-03-05T09:11:31.184Z,5.20
2019-03-05T09:12:31.167Z,5.21
2019-03-05T09:13:32.943Z,5.04
2019-03-05T09:14:34.371Z,5.04
2019-03-05T09:15:31.153Z,4.85
2019-03-05T09:16:31.144Z,4.86
2019-03-05T09:17:31.144Z,4.82
2019-03-05T09:18:31.128Z,4.75
2019-03-05T09:19:31.125Z,4.66
2019-03-05T09:20:31.126Z,4.63
2019-03-05T09:21:31.105Z,4.60
2019-03-05T09:22:31.116Z,4.67
2019-03-05T09:23:31.116Z,4.69
2019-03-05T09:24:31.138Z,4.63
2019-03-05T09:25:31.133Z,4.70
2019-03-05T09:26:31.101Z,4.72
2019-03-05T09:27:31.097Z,4.63
2019-03-05T09:28:31.086Z,4.52
2019-03-05T09:29:31.073Z,4.45
2019-03-05T09:30:31.086Z,4.54
2019-03-05T09:31:31.095Z,4.60
2019-03-05T09:32:31.052Z,4.54
2019-03-05T09:33:31.045Z,4.50
2019-03-05T09:34:31.068Z,4.41
2019-03-05T09:35:31.034Z,4.45
2019-03-05T09:36:31.075Z,4.26
2019-03-05T09:37:31.000Z,4.33
2019-03-05T09:38:30.980Z,4.45
2019-03-05T09:39:30.995Z,4.26
2019-03-05T09:40:30.985Z,4.30
2019-03-05T09:41:30.995Z,4.30
2019-03-05T09:42:39.564Z,4.29
2019-03-05T09:43:32.979Z,4.48
2019-03-05T09:44:30.972Z,4.37
2019-03-05T09:45:30.976Z,4.34
2019-03-05T09:46:30.975Z,4.32
2019-03-05T09:47:30.954Z,4.44
2019-03-05T09:48:30.950Z,4.40
2019-03-05T09:49:30.945Z,4.41
2019-03-05T09:50:32.153Z,4.40
2019-03-05T09:51:31.937Z,4.33
2019-03-05T09:52:30.913Z,4.40
2019-03-05T09:53:30.910Z,4.42
2019-03-05T09:54:30.906Z,4.50
2019-03-05T09:55:30.930Z,4.52
2019-03-05T09:56:30.936Z,4.51
2019-03-05T09:57:30.910Z,4.47
2019-03-05T09:58:30.917Z,4.50
2019-03-05T09:59:30.925Z,4.55
2019-03-05T10:00:30.915Z,4.44
2019-03-05T10:01:30.913Z,4.59
2019-03-05T10:02:30.903Z,4.62
2019-03-05T10:03:30.895Z,4.60
2019-03-05T10:04:30.882Z,4.60
2019-03-05T10:05:30.866Z,4.47
2019-03-05T10:06:30.895Z,4.50
2019-03-05T10:07:30.861Z,4.54
2019-03-05T10:08:32.716Z,4.51
2019-03-05T10:09:31.889Z,4.54
2019-03-05T10:10:30.838Z,4.41
2019-03-05T10:11:31.150Z,4.54
2019-03-05T10:12:30.862Z,4.55
2019-03-05T10:13:30.815Z,4.50
2019-03-05T10:14:30.844Z,4.55
2019-03-05T10:15:30.814Z,4.51
2019-03-05T10:16:30.817Z,4.52
2019-03-05T10:19:08.695Z,4.55
2019-03-05T10:20:08.722Z,4.58
2019-03-05T10:21:11.790Z,4.45
2019-03-05T10:22:09.782Z,4.40
2019-03-05T10:23:09.771Z,4.54
2019-03-05T10:24:10.932Z,4.54
2019-03-05T10:25:12.841Z,4.50
2019-03-05T10:26:10.663Z,4.54
2019-03-05T10:27:10.753Z,4.54
2019-03-05T10:28:42.251Z,4.55
2019-03-05T10:29:09.740Z,4.59
2019-03-05T10:30:24.791Z,4.70
2019-03-05T10:31:10.707Z,4.84
2019-03-05T10:32:09.736Z,4.66
2019-03-05T10:33:09.762Z,4.67
2019-03-05T10:34:09.695Z,4.86
2019-03-05T10:35:09.715Z,4.94
2019-03-05T10:36:09.712Z,5.02
2019-03-05T10:37:14.674Z,5.02
2019-03-05T10:38:11.700Z,5.10
2019-03-05T10:39:09.816Z,5.12
2019-03-05T10:40:09.694Z,5.20
2019-03-05T10:41:09.674Z,5.15
2019-03-05T10:42:09.690Z,5.18
2019-03-05T10:43:09.661Z,5.21
2019-03-05T10:44:09.675Z,5.17
2019-03-05T10:45:14.011Z,5.09
2019-03-05T10:46:11.312Z,4.97
2019-03-05T10:47:09.681Z,4.97
2019-03-05T10:48:09.635Z,4.97
2019-03-05T10:49:09.626Z,5.00
2019-03-05T10:50:15.231Z,4.99
2019-03-05T10:51:11.722Z,4.97
2019-03-05T10:52:09.714Z,4.86
2019-03-05T10:53:09.626Z,4.94
2019-03-05T10:54:09.603Z,4.88
2019-03-05T10:55:11.970Z,4.86
2019-03-05T10:56:10.315Z,4.80
2019-03-05T10:57:09.612Z,4.77
2019-03-05T10:58:09.574Z,4.86
2019-03-05T10:59:09.582Z,4.88
2019-03-05T11:00:09.616Z,5.03
2019-03-05T11:01:09.558Z,5.00
2019-03-05T11:02:09.609Z,4.88
2019-03-05T11:03:09.533Z,4.84
2019-03-05T11:04:09.520Z,4.78
2019-03-05T11:05:09.514Z,4.69
2019-03-05T11:06:09.511Z,4.66
2019-03-05T11:07:09.533Z,4.75
2019-03-05T11:08:09.493Z,4.66
2019-03-05T11:09:09.488Z,4.63
2019-03-05T11:10:09.490Z,4.73
2019-03-05T11:11:13.492Z,4.62
2019-03-05T11:12:10.487Z,4.70
2019-03-05T11:13:09.488Z,4.72
2019-03-05T11:14:09.453Z,4.85
2019-03-05T11:15:09.469Z,4.88
2019-03-05T11:16:10.569Z,4.86
2019-03-05T11:17:09.506Z,4.92
2019-03-05T11:18:09.479Z,4.97
2019-03-05T11:19:09.463Z,4.99
2019-03-05T11:20:09.473Z,5.07
2019-03-05T11:21:09.480Z,5.03
2019-03-05T11:22:09.434Z,5.06
2019-03-05T11:23:11.556Z,5.04
2019-03-05T11:24:09.434Z,5.09
2019-03-05T11:25:09.384Z,5.07
2019-03-05T11:26:09.470Z,5.13
2019-03-05T11:27:09.396Z,5.04
2019-03-05T11:28:09.369Z,5.07
2019-03-05T11:29:09.346Z,5.21
2019-03-05T11:30:09.335Z,5.18
2019-03-05T11:31:09.331Z,5.17
2019-03-05T11:32:09.347Z,5.39
2019-03-05T11:33:09.332Z,5.28
2019-03-05T11:34:09.358Z,5.35
2019-03-05T11:35:09.319Z,5.38
2019-03-05T11:36:09.312Z,5.46
2019-03-05T11:37:09.336Z,5.54
2019-03-05T11:38:09.311Z,5.75
2019-03-05T11:39:09.300Z,5.85
2019-03-05T11:40:09.298Z,5.71
2019-03-05T11:41:09.265Z,5.81
2019-03-05T11:42:09.287Z,5.75
2019-03-05T11:43:09.295Z,5.90
2019-03-05T11:44:09.267Z,5.72
2019-03-05T11:45:11.588Z,5.65
2019-03-05T11:46:10.346Z,5.60
2019-03-05T11:47:09.254Z,5.65
2019-03-05T11:48:09.263Z,5.79
2019-03-05T11:49:11.499Z,5.91
2019-03-05T11:50:09.306Z,5.90
2019-03-05T11:51:09.228Z,5.81
2019-03-05T11:52:09.214Z,5.76
2019-03-05T11:53:09.298Z,5.99
2019-03-05T11:54:09.201Z,6.12
2019-03-05T11:55:09.200Z,6.09
2019-03-05T11:56:09.823Z,6.28
2019-03-05T11:57:09.199Z,6.56
2019-03-05T11:58:09.204Z,6.64
2019-03-05T11:59:09.191Z,6.76
2019-03-05T12:00:09.184Z,6.71
2019-03-05T12:01:09.182Z,6.94
2019-03-05T12:02:09.948Z,7.07
2019-03-05T12:03:11.176Z,7.12
2019-03-05T12:04:09.145Z,6.98
2019-03-05T12:05:09.142Z,6.76
2019-03-05T12:06:09.152Z,6.99
2019-03-05T12:07:09.126Z,6.94
2019-03-05T12:08:09.129Z,6.87
2019-03-05T12:09:09.133Z,6.64
2019-03-05T12:13:20.405Z,6.64
2019-03-05T12:16:05.793Z,6.73
2019-03-05T12:17:06.950Z,6.84
2019-03-05T12:18:06.874Z,6.94
2019-03-05T12:19:06.875Z,6.88
2019-03-05T12:20:06.852Z,6.92
2019-03-05T12:21:06.852Z,6.71
2019-03-05T12:22:39.599Z,6.64
2019-03-05T12:23:10.376Z,6.48
2019-03-05T12:24:08.141Z,6.38
2019-03-05T12:25:06.819Z,6.58
2019-03-05T12:26:06.814Z,6.58
2019-03-05T12:27:06.811Z,6.48
2019-03-05T12:28:10.664Z,6.36
2019-03-05T12:29:07.808Z,6.44
2019-03-05T12:30:06.837Z,6.62
2019-03-05T12:31:06.872Z,6.49
2019-03-05T12:32:06.775Z,6.54
2019-03-05T12:33:06.847Z,6.44
2019-03-05T12:34:06.796Z,6.44
2019-03-05T12:35:06.775Z,6.52
2019-03-05T12:36:06.793Z,6.54
2019-03-05T12:37:06.786Z,6.41
2019-03-05T12:38:06.778Z,6.58
2019-03-05T12:39:06.783Z,6.56
2019-03-05T12:40:06.768Z,6.55
2019-03-05T12:41:06.758Z,6.37
2019-03-05T12:42:06.744Z,6.19
2019-03-05T12:43:06.740Z,6.31
2019-03-05T12:44:06.768Z,6.36
2019-03-05T12:45:06.768Z,6.09
2019-03-05T12:46:06.762Z,5.97
2019-03-05T12:47:06.750Z,5.79
2019-03-05T12:48:06.746Z,5.65
2019-03-05T12:49:06.755Z,5.51
2019-03-05T12:50:06.733Z,5.58
2019-03-05T12:51:06.726Z,5.65
2019-03-05T12:52:06.725Z,5.81
2019-03-05T12:53:06.717Z,5.71
2019-03-05T12:54:06.729Z,5.75
2019-03-05T12:55:06.700Z,5.85
2019-03-05T12:56:06.690Z,6.22
2019-03-05T12:57:06.685Z,6.56
2019-03-05T12:58:06.678Z,6.74
2019-03-05T12:59:06.680Z,6.59
2019-03-05T13:00:06.662Z,6.80
2019-03-05T13:01:06.663Z,6.92
2019-03-05T13:02:06.644Z,6.77
2019-03-05T13:03:06.646Z,6.74
2019-03-05T13:04:06.663Z,6.84
2019-03-05T13:05:06.651Z,6.81
2019-03-05T13:06:06.645Z,6.61
2019-03-05T13:07:06.641Z,6.71
2019-03-05T13:08:06.638Z,6.70
2019-03-05T13:09:06.637Z,6.48
2019-03-05T13:10:06.618Z,6.54
2019-03-05T13:11:09.397Z,6.54
2019-03-05T13:12:07.608Z,6.41
2019-03-05T13:13:06.598Z,6.37
2019-03-05T13:14:11.152Z,6.36
2019-03-05T13:15:08.595Z,6.28
2019-03-05T13:16:06.577Z,6.41
2019-03-05T13:17:06.569Z,6.30
2019-03-05T13:18:06.560Z,6.44
2019-03-05T13:19:09.510Z,6.48
2019-03-05T13:20:07.555Z,6.66
2019-03-05T13:21:07.699Z,6.98
2019-03-05T13:22:07.547Z,7.24
2019-03-05T13:23:09.549Z,7.43
2019-03-05T13:24:10.057Z,7.40
2019-03-05T13:25:08.561Z,7.58